Time;durP1;ratioP1;P1;durP2;ratioP2;P2;SDS_P1;SDS_P2;PMS_P1;PMS_P2;Temp;Humidity;BMP_temperature;BMP_pressure;BME280_temperature;BME280_humidity;BME280_pressure;Samples;Min_cycle;Max_cycle;Signal;HPM_P1;HPM_P2
2023/10/28 00:00:29;;;;;;;1.30;1.10;;;;;;;19.65;60.11;95212.23;103951;1277;73134;-42
2023/10/28 00:02:56;;;;;;;1.00;0.90;;;;;;;19.64;60.18;95221.33;103831;1280;61595;-43
2023/10/28 00:05:24;;;;;;;1.10;0.90;;;;;;;19.64;60.19;95231.83;106247;1280;61250;-42
2023/10/28 00:07:51;;;;;;;1.20;1.00;;;;;;;19.63;60.26;95236.64;106991;1276;73164;-42
2023/10/28 00:10:19;;;;;;;0.90;0.90;;;;;;;19.64;60.27;95242.52;107153;1276;66246;-42
2023/10/28 00:12:45;;;;;;;0.80;0.80;;;;;;;19.65;60.21;95257.23;104548;1277;73197;-42
2023/10/28 00:15:13;;;;;;;1.10;0.90;;;;;;;19.65;60.14;95258.85;103853;1280;61211;-42
2023/10/28 00:17:40;;;;;;;1.00;0.90;;;;;;;19.66;60.11;95281.98;104039;1277;61179;-42
2023/10/28 00:20:08;;;;;;;1.70;0.80;;;;;;;19.67;60.08;95290.02;103936;1278;74967;-42
2023/10/28 00:22:35;;;;;;;0.90;0.70;;;;;;;19.66;60.12;95290.89;103926;1280;65856;-43
2023/10/28 00:25:02;;;;;;;1.00;0.90;;;;;;;19.66;60.03;95305.40;103972;1278;72518;-42
2023/10/28 00:27:30;;;;;;;1.60;1.10;;;;;;;19.65;60.07;95317.20;104031;1280;61237;-44
2023/10/28 00:29:57;;;;;;;1.60;1.10;;;;;;;19.65;60.08;95328.76;103936;1278;61265;-42
2023/10/28 00:32:23;;;;;;;1.10;1.00;;;;;;;19.64;60.05;95346.23;104017;1277;74423;-43
2023/10/28 00:34:50;;;;;;;0.90;0.80;;;;;;;19.64;59.96;95358.50;103804;1280;65493;-43
2023/10/28 00:37:17;;;;;;;1.30;0.90;;;;;;;19.63;59.99;95365.17;103822;1277;72351;-43
2023/10/28 00:39:44;;;;;;;1.10;1.00;;;;;;;19.63;60.03;95377.90;103640;1282;61327;-42
2023/10/28 00:42:13;;;;;;;2.40;0.90;;;;;;;19.62;59.90;95377.36;103843;1277;61313;-43
2023/10/28 00:44:40;;;;;;;2.60;0.90;;;;;;;19.62;60.01;95388.69;103839;1278;74449;-43
2023/10/28 00:47:07;;;;;;;1.40;1.00;;;;;;;19.61;59.91;95387.61;103815;1280;65584;-43
2023/10/28 00:49:34;;;;;;;1.00;0.90;;;;;;;19.61;59.98;95401.66;103730;1278;72515;-43
2023/10/28 00:52:01;;;;;;;2.60;1.10;;;;;;;19.61;59.99;95404.30;103823;1280;61288;-42
2023/10/28 00:54:28;;;;;;;1.10;0.90;;;;;;;19.61;59.97;95406.16;103855;1277;61406;-42
2023/10/28 00:56:55;;;;;;;1.00;0.90;;;;;;;19.60;60.01;95404.31;103931;1277;74411;-42
2023/10/28 00:59:21;;;;;;;0.80;0.70;;;;;;;19.60;60.06;95415.94;103785;1280;66729;-42
2023/10/28 01:01:48;;;;;;;0.80;0.80;;;;;;;19.59;59.90;95422.86;103869;1278;72692;-44
2023/10/28 01:04:15;;;;;;;1.00;0.90;;;;;;;19.59;59.94;95433.42;103882;1280;61291;-42
2023/10/28 01:06:42;;;;;;;1.00;0.80;;;;;;;19.59;59.91;95441.57;103884;1278;61379;-42
2023/10/28 01:09:09;;;;;;;1.10;0.90;;;;;;;19.58;59.97;95448.16;104024;1277;74708;-42
2023/10/28 01:11:39;;;;;;;0.90;0.80;;;;;;;19.58;60.01;95450.65;104047;1280;66350;-42
2023/10/28 01:14:07;;;;;;;0.70;0.70;;;;;;;19.57;59.96;95466.48;104019;1280;71584;-42
2023/10/28 01:16:35;;;;;;;1.00;0.90;;;;;;;19.57;59.96;95481.01;104054;1277;61326;-42
2023/10/28 01:19:02;;;;;;;0.80;0.80;;;;;;;19.57;59.96;95497.52;103997;1280;61354;-42
2023/10/28 01:21:28;;;;;;;2.20;0.90;;;;;;;19.57;59.98;95499.31;103963;1280;74620;-42
2023/10/28 01:23:56;;;;;;;0.90;0.90;;;;;;;19.56;59.93;95508.46;103763;1280;66328;-42
2023/10/28 01:26:23;;;;;;;0.70;0.70;;;;;;;19.56;60.03;95518.86;103764;1277;72459;-42
2023/10/28 01:28:50;;;;;;;1.00;0.90;;;;;;;19.56;60.03;95528.09;103717;1280;61285;-42
2023/10/28 01:31:17;;;;;;;1.20;0.80;;;;;;;19.55;60.00;95535.55;103924;1277;61379;-42
2023/10/28 01:33:44;;;;;;;0.90;0.70;;;;;;;19.55;60.05;95542.54;104049;1277;74672;-42
2023/10/28 01:36:10;;;;;;;0.80;0.80;;;;;;;19.55;59.98;95549.45;103998;1276;66060;-42
2023/10/28 01:38:38;;;;;;;0.80;0.80;;;;;;;19.54;59.92;95558.53;104049;1277;72650;-42
2023/10/28 01:41:05;;;;;;;1.30;0.90;;;;;;;19.54;59.90;95565.50;103877;1280;61380;-42
2023/10/28 01:43:32;;;;;;;0.90;0.80;;;;;;;19.54;59.91;95575.20;103717;1277;61431;-42
2023/10/28 01:45:58;;;;;;;0.80;0.80;;;;;;;19.53;59.96;95583.04;103749;1278;74681;-42
2023/10/28 01:48:26;;;;;;;1.60;0.90;;;;;;;19.53;59.85;95584.21;103890;1280;65603;-42
2023/10/28 01:50:53;;;;;;;0.80;0.60;;;;;;;19.52;60.01;95592.75;103821;1278;72492;-42
2023/10/28 01:53:20;;;;;;;3.40;0.70;;;;;;;19.52;59.94;95602.37;103768;1280;61397;-42
2023/10/28 01:55:47;;;;;;;0.90;0.70;;;;;;;19.52;59.94;95614.48;103775;1278;61461;-42
2023/10/28 01:58:13;;;;;;;0.80;0.80;;;;;;;19.52;59.92;95622.85;103643;1282;75301;-41
2023/10/28 02:00:40;;;;;;;0.80;0.80;;;;;;;19.52;59.92;95631.38;103758;1283;66059;-42
2023/10/28 02:03:08;;;;;;;0.80;0.80;;;;;;;19.52;59.91;95638.91;103858;1277;72446;-42
2023/10/28 02:05:35;;;;;;;1.20;0.80;;;;;;;19.51;59.99;95644.50;104054;1280;61275;-42
2023/10/28 02:08:03;;;;;;;0.80;0.80;;;;;;;19.51;59.88;95653.58;103865;1278;61469;-41
2023/10/28 02:10:30;;;;;;;1.60;0.80;;;;;;;19.51;59.93;95665.14;104161;1278;74384;-42
2023/10/28 02:12:57;;;;;;;1.40;0.80;;;;;;;19.51;59.94;95668.33;104080;1280;65926;-42
2023/10/28 02:15:23;;;;;;;0.80;0.80;;;;;;;19.51;59.87;95671.96;103981;1276;72952;-42
2023/10/28 02:17:50;;;;;;;1.00;0.80;;;;;;;19.51;59.90;95680.66;104060;1280;61360;-42
2023/10/28 02:20:17;;;;;;;1.00;0.60;;;;;;;19.50;59.91;95692.06;103802;1277;61355;-42
2023/10/28 02:22:44;;;;;;;1.00;0.80;;;;;;;19.49;59.91;95702.39;104045;1280;74553;-42
2023/10/28 02:25:11;;;;;;;1.20;0.70;;;;;;;19.49;59.86;95706.58;104044;1280;65571;-42
2023/10/28 02:27:37;;;;;;;0.70;0.70;;;;;;;19.48;59.82;95717.27;103986;1277;72671;-42
2023/10/28 02:30:07;;;;;;;0.70;0.70;;;;;;;19.48;59.82;95723.95;104036;1280;61403;-42
2023/10/28 02:32:35;;;;;;;0.70;0.70;;;;;;;19.49;59.78;95737.67;104052;1280;61304;-42
2023/10/28 02:35:03;;;;;;;0.80;0.60;;;;;;;19.48;59.84;95741.80;104031;1277;74811;-42
2023/10/28 02:37:30;;;;;;;1.00;0.80;;;;;;;19.48;59.89;95745.98;103979;1280;66232;-42
2023/10/28 02:39:56;;;;;;;0.90;0.80;;;;;;;19.48;59.83;95750.25;103841;1277;72446;-42
2023/10/28 02:42:23;;;;;;;0.80;0.80;;;;;;;19.47;59.85;95761.90;103799;1280;61304;-44
2023/10/28 02:44:50;;;;;;;0.70;0.70;;;;;;;19.47;59.80;95770.66;106903;1276;61154;-43
2023/10/28 02:47:18;;;;;;;0.60;0.60;;;;;;;19.47;59.86;95776.00;107422;1276;73255;-43
2023/10/28 02:49:45;;;;;;;0.70;0.70;;;;;;;19.48;59.87;95783.84;107595;1276;58761;-42
2023/10/28 02:52:12;;;;;;;0.60;0.60;;;;;;;19.48;59.81;95799.03;103927;1277;72607;-43
2023/10/28 02:54:39;;;;;;;1.00;0.70;;;;;;;19.50;59.80;95802.21;104028;1280;61293;-43
2023/10/28 02:57:06;;;;;;;0.70;0.70;;;;;;;19.50;59.70;95815.48;104012;1277;61367;-43
2023/10/28 02:59:33;;;;;;;0.60;0.60;;;;;;;19.51;59.71;95817.88;104052;1278;74408;-41
2023/10/28 03:02:00;;;;;;;0.70;0.70;;;;;;;19.51;59.74;95823.61;103936;1280;63923;-41
2023/10/28 03:04:27;;;;;;;0.80;0.70;;;;;;;19.50;59.67;95829.68;103945;1280;72474;-41
2023/10/28 03:06:53;;;;;;;0.80;0.80;;;;;;;19.49;59.71;95831.70;104078;1280;61253;-41
2023/10/28 03:09:20;;;;;;;1.20;0.70;;;;;;;19.48;59.64;95838.20;103888;1276;61377;-42
2023/10/28 03:11:47;;;;;;;1.20;0.60;;;;;;;19.47;59.57;95847.76;104054;1278;74220;-42
2023/10/28 03:14:13;;;;;;;0.90;0.70;;;;;;;19.47;59.65;95848.45;103903;1277;65235;-42
2023/10/28 03:16:41;;;;;;;0.90;0.70;;;;;;;19.47;59.59;95856.99;104030;1277;72383;-42
2023/10/28 03:19:11;;;;;;;1.00;0.60;;;;;;;19.47;59.70;95856.67;103811;1280;61294;-42
2023/10/28 03:21:39;;;;;;;0.60;0.60;;;;;;;19.47;59.61;95859.09;103823;1277;61248;-42
2023/10/28 03:24:06;;;;;;;0.60;0.60;;;;;;;19.46;59.57;95865.29;103831;1277;74641;-42
2023/10/28 03:26:33;;;;;;;0.50;0.50;;;;;;;19.46;59.60;95869.55;103993;1277;65771;-42
2023/10/28 03:28:59;;;;;;;1.20;0.70;;;;;;;19.46;59.62;95878.33;103804;1276;72556;-42
2023/10/28 03:31:26;;;;;;;1.40;0.60;;;;;;;19.45;59.56;95897.04;103843;1280;61276;-42
2023/10/28 03:33:54;;;;;;;0.70;0.60;;;;;;;19.45;59.68;95900.44;103736;1277;61275;-42
2023/10/28 03:36:21;;;;;;;0.60;0.60;;;;;;;19.44;59.61;95902.77;103803;1280;74610;-42
2023/10/28 03:38:49;;;;;;;0.70;0.70;;;;;;;19.44;59.70;95913.94;104022;1280;66005;-42
2023/10/28 03:41:16;;;;;;;0.90;0.60;;;;;;;19.44;59.56;95919.52;104028;1278;72660;-42
2023/10/28 03:43:43;;;;;;;0.80;0.60;;;;;;;19.44;59.58;95922.77;104031;1280;61263;-42
2023/10/28 03:46:16;;;;;;;0.90;0.70;;;;;;;19.43;59.58;95923.24;104078;1276;61365;-42
2023/10/28 03:48:43;;;;;;;0.70;0.70;;;;;;;19.43;59.54;95930.92;103992;1277;74697;-42
2023/10/28 03:51:09;;;;;;;0.90;0.70;;;;;;;19.43;59.59;95936.98;104039;1280;65984;-41
2023/10/28 03:53:36;;;;;;;1.10;0.60;;;;;;;19.43;59.55;95939.15;104042;1277;72620;-41
2023/10/28 03:56:04;;;;;;;0.80;0.70;;;;;;;19.42;59.59;95944.52;104050;1280;61307;-41
2023/10/28 03:58:30;;;;;;;0.80;0.80;;;;;;;19.42;59.48;95944.90;103875;1280;61640;-42
2023/10/28 04:00:58;;;;;;;0.50;0.50;;;;;;;19.42;59.54;95958.00;103755;1278;74446;-42
2023/10/28 04:03:24;;;;;;;0.80;0.60;;;;;;;19.42;59.57;95963.66;103435;1285;66130;-41
2023/10/28 04:05:51;;;;;;;0.70;0.60;;;;;;;19.40;59.55;95966.39;103684;1280;72604;-41
2023/10/28 04:08:18;;;;;;;0.70;0.70;;;;;;;19.41;59.49;95969.95;103721;1280;61332;-41
2023/10/28 04:10:46;;;;;;;1.10;0.60;;;;;;;19.40;59.54;95970.73;103699;1277;61978;-41
2023/10/28 04:13:13;;;;;;;0.60;0.60;;;;;;;19.39;59.42;95968.80;103745;1280;74410;-41
2023/10/28 04:15:40;;;;;;;0.70;0.70;;;;;;;19.40;59.47;95974.92;103784;1280;66057;-41
2023/10/28 04:18:07;;;;;;;1.40;0.60;;;;;;;19.39;59.55;95977.95;103828;1277;72581;-41
2023/10/28 04:20:35;;;;;;;0.80;0.50;;;;;;;19.39;59.56;95980.05;104001;1280;61275;-41
2023/10/28 04:23:02;;;;;;;0.80;0.70;;;;;;;19.38;59.50;95981.30;103744;1277;61323;-41
2023/10/28 04:25:28;;;;;;;1.10;0.70;;;;;;;19.38;59.49;95986.58;103694;1280;74442;-41
2023/10/28 04:27:55;;;;;;;0.50;0.50;;;;;;;19.38;59.53;95991.45;103763;1280;66235;-42
2023/10/28 04:30:22;;;;;;;0.70;0.70;;;;;;;19.38;59.49;95993.08;104276;1276;72554;-42
2023/10/28 04:32:49;;;;;;;0.50;0.50;;;;;;;19.38;59.48;95997.35;103770;1280;61270;-42
2023/10/28 04:35:15;;;;;;;0.70;0.60;;;;;;;19.38;59.48;95996.27;103721;1277;61259;-42
2023/10/28 04:37:53;;;;;;;0.70;0.70;;;;;;;19.38;59.47;96004.79;103725;1277;74615;-41
2023/10/28 04:40:20;;;;;;;0.50;0.50;;;;;;;19.37;59.47;96011.30;104335;1277;65952;-42
2023/10/28 04:42:47;;;;;;;0.60;0.60;;;;;;;19.37;59.48;96017.52;103770;1277;72616;-43
2023/10/28 04:45:13;;;;;;;0.60;0.60;;;;;;;19.37;59.35;96022.56;103903;1280;61196;-42
2023/10/28 04:47:40;;;;;;;0.50;0.50;;;;;;;19.37;59.49;96023.17;104026;1277;61319;-42
2023/10/28 04:50:08;;;;;;;0.50;0.50;;;;;;;19.37;59.41;96025.73;103933;1280;74657;-42
2023/10/28 04:52:34;;;;;;;0.50;0.50;;;;;;;19.37;59.35;96031.48;104068;1280;66017;-42
2023/10/28 04:55:01;;;;;;;0.70;0.70;;;;;;;19.36;59.43;96042.27;103965;1277;72668;-42
2023/10/28 04:57:28;;;;;;;0.80;0.50;;;;;;;19.36;59.50;96048.54;103909;1280;61374;-44
2023/10/28 04:59:54;;;;;;;0.40;0.40;;;;;;;19.36;59.49;96059.23;103960;1276;61380;-43
2023/10/28 05:02:21;;;;;;;0.90;0.70;;;;;;;19.36;59.42;96063.19;103730;1280;74657;-42
2023/10/28 05:04:48;;;;;;;0.60;0.60;;;;;;;19.35;59.48;96068.52;103765;1280;65967;-44
2023/10/28 05:07:14;;;;;;;0.60;0.60;;;;;;;19.35;59.35;96074.66;103951;1277;72500;-41
2023/10/28 05:09:41;;;;;;;0.70;0.60;;;;;;;19.35;59.46;96077.06;103936;1280;61287;-43
2023/10/28 05:12:08;;;;;;;0.80;0.60;;;;;;;19.34;59.41;96084.65;103921;1276;61239;-43
2023/10/28 05:14:35;;;;;;;1.10;0.70;;;;;;;19.34;59.36;96082.87;103929;1280;74441;-42
2023/10/28 05:17:01;;;;;;;0.80;0.60;;;;;;;19.34;59.37;96092.33;104065;1280;66089;-42
2023/10/28 05:19:28;;;;;;;0.80;0.60;;;;;;;19.34;59.37;96096.73;103979;1277;72667;-42
2023/10/28 05:21:55;;;;;;;0.90;0.70;;;;;;;19.34;59.32;96103.19;104304;1280;61189;-43
2023/10/28 05:24:22;;;;;;;0.40;0.40;;;;;;;19.34;59.46;96106.67;107387;1277;59119;-42
2023/10/28 05:26:48;;;;;;;0.90;0.70;;;;;;;19.34;59.34;96106.13;107405;1276;73798;-42
2023/10/28 05:29:16;;;;;;;0.60;0.60;;;;;;;19.35;59.32;96111.73;106670;1280;64990;-43
2023/10/28 05:31:43;;;;;;;0.60;0.60;;;;;;;19.35;59.40;96117.41;104002;1277;72695;-41
2023/10/28 05:34:12;;;;;;;0.80;0.60;;;;;;;19.36;59.37;96121.90;103906;1291;61987;-42
2023/10/28 05:36:38;;;;;;;0.40;0.40;;;;;;;19.36;59.25;96124.54;104019;1276;61486;-43
2023/10/28 05:39:06;;;;;;;0.50;0.50;;;;;;;19.36;59.25;96126.41;103828;1278;74363;-42
2023/10/28 05:41:33;;;;;;;0.80;0.60;;;;;;;19.37;59.22;96133.61;103807;1280;65437;-42
2023/10/28 05:44:00;;;;;;;0.80;0.60;;;;;;;19.37;59.13;96142.06;103757;1277;72550;-42
2023/10/28 05:46:27;;;;;;;0.70;0.60;;;;;;;19.37;59.21;96146.41;103832;1280;61228;-42
2023/10/28 05:48:53;;;;;;;0.50;0.40;;;;;;;19.37;59.14;96148.05;104002;1277;61229;-41
2023/10/28 05:51:20;;;;;;;1.40;0.90;;;;;;;19.36;59.15;96156.58;104042;1277;74341;-41
2023/10/28 05:53:47;;;;;;;0.70;0.70;;;;;;;19.36;59.20;96164.95;104026;1282;65820;-41
2023/10/28 05:56:16;;;;;;;0.50;0.50;;;;;;;19.35;59.17;96169.13;104034;1277;72721;-43
2023/10/28 05:58:42;;;;;;;0.50;0.50;;;;;;;19.36;59.21;96179.60;103828;1279;61192;-42
2023/10/28 06:01:09;;;;;;;0.50;0.50;;;;;;;19.35;59.19;96180.66;103984;1278;61409;-41
2023/10/28 06:03:38;;;;;;;0.60;0.60;;;;;;;19.35;59.11;96183.92;103899;1278;74489;-42
2023/10/28 06:06:05;;;;;;;0.60;0.60;;;;;;;19.35;59.07;96185.56;103991;1280;65917;-42
2023/10/28 06:08:32;;;;;;;0.90;0.60;;;;;;;19.35;59.18;96194.95;104048;1280;71487;-42
2023/10/28 06:10:59;;;;;;;0.50;0.50;;;;;;;19.34;59.14;96199.52;103893;1280;61380;-41
2023/10/28 06:13:28;;;;;;;0.90;0.50;;;;;;;19.34;59.08;96203.33;103909;1277;61380;-42
2023/10/28 06:15:54;;;;;;;0.40;0.40;;;;;;;19.34;59.11;96212.62;104051;1280;74317;-41
2023/10/28 06:18:21;;;;;;;0.80;0.60;;;;;;;19.33;59.09;96223.87;104018;1280;66298;-41
2023/10/28 06:20:48;;;;;;;0.60;0.60;;;;;;;19.34;59.12;96230.84;103946;1277;72766;-41
2023/10/28 06:23:15;;;;;;;0.80;0.60;;;;;;;19.33;59.12;96233.41;103953;1280;62725;-42
2023/10/28 06:25:42;;;;;;;0.70;0.50;;;;;;;19.33;59.04;96240.15;103974;1277;61256;-42
2023/10/28 06:28:10;;;;;;;1.80;0.50;;;;;;;19.32;59.11;96239.61;103996;1279;74759;-42
2023/10/28 06:30:46;;;;;;;0.50;0.50;;;;;;;19.32;59.16;96247.22;104133;1280;65322;-42
2023/10/28 06:33:13;;;;;;;1.50;0.60;;;;;;;19.32;59.08;96250.63;103860;1280;71361;-42
2023/10/28 06:35:40;;;;;;;0.60;0.60;;;;;;;19.31;59.15;96258.61;104023;1280;61256;-41
2023/10/28 06:38:07;;;;;;;0.70;0.60;;;;;;;19.31;59.04;96259.16;103847;1277;61370;-41
2023/10/28 06:40:40;;;;;;;0.50;0.40;;;;;;;19.31;59.03;96260.86;103987;1280;75124;-41
2023/10/28 06:43:06;;;;;;;0.90;0.60;;;;;;;19.31;59.10;96274.20;103834;1280;65145;-41
2023/10/28 06:45:33;;;;;;;0.50;0.50;;;;;;;19.31;59.05;96281.10;104063;1280;72620;-41
2023/10/28 06:48:00;;;;;;;0.40;0.40;;;;;;;19.30;59.13;96283.73;103780;1280;61281;-41
2023/10/28 06:50:27;;;;;;;0.70;0.50;;;;;;;19.30;59.07;96288.70;103906;1277;61264;-41
2023/10/28 06:52:54;;;;;;;0.50;0.50;;;;;;;19.30;59.02;96291.41;103915;1280;74447;-41
2023/10/28 06:55:22;;;;;;;0.80;0.60;;;;;;;19.30;59.11;96292.73;104428;1280;66274;-41
2023/10/28 06:57:49;;;;;;;0.50;0.40;;;;;;;19.30;59.04;96298.70;103992;1278;72450;-43
2023/10/28 07:00:16;;;;;;;2.70;0.60;;;;;;;19.29;59.02;96298.79;103922;1280;61275;-43
2023/10/28 07:02:43;;;;;;;0.50;0.50;;;;;;;19.29;59.07;96308.02;103992;1277;61363;-42
2023/10/28 07:05:10;;;;;;;0.50;0.50;;;;;;;19.29;59.06;96319.11;103818;1280;74541;-43
2023/10/28 07:07:38;;;;;;;0.60;0.60;;;;;;;19.29;59.03;96328.79;103744;1282;65360;-41
2023/10/28 07:10:06;;;;;;;0.50;0.50;;;;;;;19.29;58.98;96333.06;103863;1280;72657;-41
2023/10/28 07:12:33;;;;;;;0.50;0.50;;;;;;;19.29;59.00;96337.33;103888;1280;61304;-42
2023/10/28 07:14:59;;;;;;;0.60;0.60;;;;;;;19.28;58.97;96344.38;103992;1276;61323;-42
2023/10/28 07:17:26;;;;;;;0.70;0.50;;;;;;;19.28;58.98;96348.58;103957;1280;74559;-42
2023/10/28 07:19:53;;;;;;;0.50;0.50;;;;;;;19.28;59.02;96349.59;103953;1280;66033;-41
2023/10/28 07:22:20;;;;;;;0.60;0.60;;;;;;;19.28;59.01;96352.22;103811;1278;72703;-42
2023/10/28 07:24:47;;;;;;;0.50;0.50;;;;;;;19.28;58.99;96351.98;103742;1281;61772;-41
2023/10/28 07:27:15;;;;;;;1.00;0.60;;;;;;;19.28;59.03;96359.27;103821;1278;61310;-42
2023/10/28 07:29:42;;;;;;;0.40;0.40;;;;;;;19.28;58.92;96359.49;103719;1280;74598;-42
2023/10/28 07:32:09;;;;;;;0.60;0.60;;;;;;;19.28;58.99;96364.08;103816;1280;66510;-42
2023/10/28 07:34:36;;;;;;;0.60;0.60;;;;;;;19.28;59.04;96368.50;103836;1277;72435;-42
2023/10/28 07:37:05;;;;;;;0.70;0.50;;;;;;;19.28;58.89;96372.52;103987;1281;61373;-42
2023/10/28 07:39:32;;;;;;;0.60;0.60;;;;;;;19.27;59.02;96372.60;103994;1277;61454;-42
2023/10/28 07:41:59;;;;;;;0.80;0.60;;;;;;;19.27;58.98;96378.48;104029;1280;74884;-41
2023/10/28 07:44:26;;;;;;;0.50;0.50;;;;;;;19.27;58.97;96379.27;104004;1280;65971;-41
2023/10/28 07:46:52;;;;;;;0.60;0.60;;;;;;;19.27;58.93;96380.60;103871;1277;72464;-41
2023/10/28 07:49:19;;;;;;;1.30;0.60;;;;;;;19.26;58.96;96389.13;103760;1282;61303;-41
2023/10/28 07:51:46;;;;;;;0.60;0.60;;;;;;;19.26;58.92;96387.65;103800;1278;61373;-41
2023/10/28 07:54:14;;;;;;;0.90;0.60;;;;;;;19.26;59.09;96394.94;103817;1276;74924;-40
2023/10/28 07:56:42;;;;;;;1.00;0.60;;;;;;;19.26;58.97;96405.10;103886;1282;66807;-43
2023/10/28 07:59:11;;;;;;;0.60;0.60;;;;;;;19.27;58.99;96407.89;103863;1280;72560;-42
2023/10/28 08:01:39;;;;;;;0.80;0.50;;;;;;;19.27;58.87;96409.90;105059;1276;61631;-43
2023/10/28 08:04:06;;;;;;;1.10;0.60;;;;;;;19.27;58.95;96417.11;107031;1276;60144;-42
2023/10/28 08:06:34;;;;;;;0.50;0.50;;;;;;;19.27;58.88;96425.56;107442;1277;73250;-42
2023/10/28 08:09:05;;;;;;;0.60;0.60;;;;;;;19.28;58.99;96430.15;105263;1280;64938;-44
2023/10/28 08:11:32;;;;;;;0.50;0.50;;;;;;;19.29;58.79;96438.23;104045;1277;72535;-42
2023/10/28 08:13:59;;;;;;;0.70;0.50;;;;;;;19.28;58.94;96442.48;104041;1280;61287;-42
2023/10/28 08:16:26;;;;;;;0.60;0.60;;;;;;;19.30;58.81;96446.60;103846;1280;61353;-42
2023/10/28 08:18:53;;;;;;;1.20;0.60;;;;;;;19.30;58.78;96447.76;104005;1281;75474;-41
2023/10/28 08:21:19;;;;;;;0.60;0.60;;;;;;;19.30;58.71;96451.65;103904;1280;64784;-42
2023/10/28 08:23:47;;;;;;;0.50;0.50;;;;;;;19.30;58.78;96459.63;103952;1283;73156;-43
2023/10/28 08:26:17;;;;;;;0.60;0.50;;;;;;;19.29;58.74;96461.25;103819;1281;61306;-43
2023/10/28 08:28:46;;;;;;;0.60;0.60;;;;;;;19.29;58.74;96469.80;103750;1278;61425;-43
2023/10/28 08:31:14;;;;;;;0.60;0.50;;;;;;;19.30;58.74;96469.70;103825;1280;74670;-41
2023/10/28 08:33:41;;;;;;;1.40;0.60;;;;;;;19.30;58.72;96473.50;104048;1280;66001;-41
2023/10/28 08:36:09;;;;;;;0.40;0.40;;;;;;;19.29;58.75;96475.85;103981;1277;72358;-41
2023/10/28 08:38:39;;;;;;;0.70;0.50;;;;;;;19.30;58.71;96475.60;103689;1280;61189;-42
2023/10/28 08:41:06;;;;;;;0.50;0.50;;;;;;;19.30;58.60;96478.40;103765;1276;61270;-42
2023/10/28 08:43:36;;;;;;;0.60;0.50;;;;;;;19.30;58.68;96480.73;103814;1280;74807;-42
2023/10/28 08:46:05;;;;;;;1.00;0.60;;;;;;;19.29;58.66;96483.05;103873;1286;65870;-42
2023/10/28 08:48:33;;;;;;;0.50;0.50;;;;;;;19.30;58.65;96489.64;103932;1283;72444;-41
2023/10/28 08:51:00;;;;;;;0.70;0.60;;;;;;;19.29;58.61;96497.08;103723;1281;174058;-41
2023/10/28 08:53:27;;;;;;;0.80;0.50;;;;;;;19.30;58.67;96501.66;103715;1277;61405;-42
2023/10/28 08:55:54;;;;;;;1.00;0.70;;;;;;;19.29;58.60;96501.04;103883;1280;74594;-42
2023/10/28 08:58:21;;;;;;;0.70;0.60;;;;;;;19.30;58.58;96502.21;103792;1285;66249;-42
2023/10/28 09:00:50;;;;;;;0.60;0.50;;;;;;;19.29;58.69;96515.23;104058;1282;72447;-41
2023/10/28 09:03:22;;;;;;;0.50;0.50;;;;;;;19.29;58.65;96518.50;103947;1278;61423;-42
2023/10/28 09:05:52;;;;;;;1.00;0.60;;;;;;;19.29;58.69;96525.70;103880;1280;61316;-42
2023/10/28 09:08:19;;;;;;;0.50;0.50;;;;;;;19.29;58.60;96521.76;103823;1280;73465;-42
2023/10/28 09:10:46;;;;;;;0.40;0.40;;;;;;;19.28;58.53;96523.06;103807;1277;66134;-41
2023/10/28 09:13:14;;;;;;;0.60;0.60;;;;;;;19.28;58.57;96528.19;103847;1280;72360;-42
2023/10/28 09:15:41;;;;;;;0.60;0.60;;;;;;;19.28;58.66;96528.02;103899;1283;61265;-43
2023/10/28 09:18:11;;;;;;;0.60;0.60;;;;;;;19.28;58.56;96533.70;103752;1282;61278;-42
2023/10/28 09:20:37;;;;;;;0.70;0.60;;;;;;;19.29;58.58;96538.73;104163;1276;74632;-41
2023/10/28 09:23:04;;;;;;;0.60;0.60;;;;;;;19.28;58.57;96534.77;103852;1281;66040;-42
2023/10/28 09:25:31;;;;;;;0.50;0.50;;;;;;;19.28;58.54;96541.77;103700;1282;72973;-42
2023/10/28 09:27:57;;;;;;;0.60;0.50;;;;;;;19.28;58.54;96542.53;103793;1289;61300;-42
2023/10/28 09:30:24;;;;;;;1.70;0.50;;;;;;;19.28;58.55;96545.64;104417;1277;61165;-41
2023/10/28 09:32:55;;;;;;;0.50;0.50;;;;;;;19.27;58.48;96540.51;104047;1282;74353;-41
2023/10/28 09:35:23;;;;;;;0.60;0.50;;;;;;;19.28;58.54;96545.40;104330;1276;66271;-42
2023/10/28 09:37:50;;;;;;;0.90;0.60;;;;;;;19.28;58.52;96536.23;103879;1283;72436;-41
2023/10/28 09:40:17;;;;;;;0.50;0.50;;;;;;;19.28;58.53;96540.29;103918;1282;61297;-41
2023/10/28 09:42:44;;;;;;;0.60;0.60;;;;;;;19.28;58.46;96542.30;104047;1280;61286;-41
2023/10/28 09:45:11;;;;;;;0.90;0.70;;;;;;;19.28;58.48;96544.15;103614;1277;74605;-42
2023/10/28 09:47:46;;;;;;;0.30;0.30;;;;;;;19.28;58.55;96548.98;103792;1280;65569;-41
2023/10/28 09:50:14;;;;;;;0.40;0.40;;;;;;;19.28;58.48;96548.59;104352;1280;72443;-42
2023/10/28 09:52:45;;;;;;;0.40;0.40;;;;;;;19.28;58.44;96555.86;103678;1292;61287;-42
2023/10/28 09:55:13;;;;;;;0.60;0.50;;;;;;;19.28;58.47;96556.10;103896;1277;61352;-42
2023/10/28 09:57:42;;;;;;;0.70;0.60;;;;;;;19.27;58.47;96561.13;104074;1280;74709;-42
2023/10/28 10:00:10;;;;;;;0.50;0.50;;;;;;;19.28;58.49;96562.29;104012;1280;66170;-41
2023/10/28 10:03:13;;;;;;;2.30;0.60;;;;;;;19.27;58.46;96559.50;104032;1277;72369;-41
2023/10/28 10:05:42;;;;;;;0.70;0.50;;;;;;;19.27;58.48;96571.45;103347;1281;61416;-43
2023/10/28 10:08:36;;;;;;;0.70;0.60;;;;;;;19.27;58.45;96573.23;103735;1283;61438;-42
2023/10/28 10:11:05;;;;;;;0.50;0.50;;;;;;;19.28;58.45;96573.23;103734;1283;75445;-42
2023/10/28 10:13:44;;;;;;;0.80;0.60;;;;;;;19.28;58.47;96582.39;103838;1280;66002;-42
2023/10/28 10:16:19;;;;;;;0.50;0.50;;;;;;;19.28;58.44;96581.61;103917;1280;73194;-42
2023/10/28 10:18:47;;;;;;;0.80;0.70;;;;;;;19.28;58.35;96582.39;103681;1279;61296;-42
2023/10/28 10:21:18;;;;;;;0.70;0.70;;;;;;;19.28;58.40;96584.27;104056;1282;61371;-42
2023/10/28 10:23:54;;;;;;;0.60;0.50;;;;;;;19.28;58.39;96587.81;103990;1278;74434;-42
2023/10/28 10:26:25;;;;;;;0.60;0.60;;;;;;;19.28;58.40;96590.05;103877;1282;65584;-42
2023/10/28 10:28:55;;;;;;;0.60;0.60;;;;;;;19.28;58.42;96596.74;103872;1277;72466;-41
2023/10/28 10:31:23;;;;;;;0.60;0.60;;;;;;;19.28;58.38;96598.68;103848;1280;61329;-41
2023/10/28 10:34:03;;;;;;;0.60;0.60;;;;;;;19.28;58.34;96601.32;104015;1283;61386;-41
2023/10/28 10:36:35;;;;;;;0.80;0.70;;;;;;;19.27;58.32;96605.73;104046;1283;74425;-41
2023/10/28 10:39:16;;;;;;;0.90;0.40;;;;;;;19.27;58.35;96614.56;103957;1282;65766;-43
2023/10/28 10:41:46;;;;;;;0.60;0.60;;;;;;;19.27;58.37;96612.39;107058;1277;71371;-43
2023/10/28 10:44:24;;;;;;;0.60;0.60;;;;;;;19.27;58.33;96614.19;107375;1277;59104;-44
2023/10/28 10:46:53;;;;;;;1.60;0.70;;;;;;;19.27;58.47;96612.55;107106;1277;60167;-44
2023/10/28 10:49:22;;;;;;;0.60;0.60;;;;;;;19.29;58.31;96615.28;103943;1280;74493;-42
2023/10/28 10:51:49;;;;;;;0.60;0.50;;;;;;;19.30;58.31;96613.34;104021;1283;66714;-41
2023/10/28 10:54:16;;;;;;;0.60;0.60;;;;;;;19.31;58.31;96622.59;103761;1277;72527;-41
2023/10/28 10:56:44;;;;;;;0.60;0.60;;;;;;;19.31;58.25;96627.16;103802;1280;61375;-42
2023/10/28 10:59:11;;;;;;;0.70;0.70;;;;;;;19.32;58.25;96634.61;103744;1280;61393;-42
2023/10/28 11:01:38;;;;;;;1.30;0.60;;;;;;;19.32;58.23;96634.84;103735;1283;74174;-42
2023/10/28 11:04:06;;;;;;;0.60;0.60;;;;;;;19.31;58.14;96639.41;103803;1283;65938;-41
2023/10/28 11:06:36;;;;;;;0.60;0.60;;;;;;;19.31;58.22;96638.41;103876;1280;72479;-42
2023/10/28 11:09:05;;;;;;;0.60;0.50;;;;;;;19.30;58.26;96633.52;103890;1283;61346;-42
2023/10/28 11:11:35;;;;;;;0.50;0.50;;;;;;;19.30;58.15;96643.60;103894;1280;61131;-42
2023/10/28 11:14:05;;;;;;;0.60;0.50;;;;;;;19.30;58.14;96646.61;104032;1279;74737;-42
2023/10/28 11:16:33;;;;;;;0.70;0.70;;;;;;;19.30;58.11;96651.81;104072;1277;66312;-41
2023/10/28 11:19:03;;;;;;;0.60;0.60;;;;;;;19.29;58.19;96652.75;103847;1276;72758;-42
2023/10/28 11:21:31;;;;;;;0.60;0.60;;;;;;;19.29;58.19;96664.15;103774;1291;61262;-41
2023/10/28 11:23:58;;;;;;;0.50;0.50;;;;;;;19.29;58.10;96664.15;103902;1281;61248;-41
2023/10/28 11:26:24;;;;;;;0.80;0.60;;;;;;;19.29;58.20;96672.29;103815;1281;74535;-42